METAR AND TAF INFORMATION
METAR FOR LSGS
ADDS - METARS form results

(0756 UTC 27 June 2019)
Data provider http://aviationweather.gov/metar/data/
 
METAR text: LSGS 270750Z 09004KT 040V110 CAVOK 26/12 Q1026
Conditions at: LSGS (SION (MIL/CIV/AU, CH) observed 0750 UTC 27 June 2019
Temperature: 26.0°C (79°F)
Dewpoint: 12.0°C (54°F) [RH = 42%]
Pressure (altimeter): 30.30 inches Hg (1026.0 mb)
Winds: from the E (90 degrees) at 5 MPH (4 knots; 2.1 m/s)
Visibility: 6 or more miles (10+ km)
Ceiling: ceiling and visibility are OK
Clouds: unknown
Weather: no significant weather observed at this time

METAR text: LSGS 270720Z 09004KT 060V130 CAVOK 25/13 Q1026
Conditions at: LSGS (SION (MIL/CIV/AU, CH) observed 0720 UTC 27 June 2019
Temperature: 25.0°C (77°F)
Dewpoint: 13.0°C (55°F) [RH = 47%]
Pressure (altimeter): 30.30 inches Hg (1026.0 mb)
Winds: from the E (90 degrees) at 5 MPH (4 knots; 2.1 m/s)
Visibility: 6 or more miles (10+ km)
Ceiling: ceiling and visibility are OK
Clouds: unknown
Weather: no significant weather observed at this time

Forecast for: LSGS (SION (MIL/CIV/AU, CH)
Text: TAF LSGS 270525Z 2706/2715 VRB03KT CAVOK
Forecast period: 0600 to 1100 UTC 27 June 2019
Forecast type: FROM: standard forecast or significant change
Winds: variable direction winds at 3 MPH (3 knots; 1.5 m/s)
Visibility: 6 or more miles 10+ km)
Ceiling: unknown
Clouds: missing
Weather: NSW  (no significant weather)
Text: BECMG 2711/2713 25010KT
Forecast period: 1100 to 1500 UTC 27 June 2019
Forecast type: BECOMING: Conditions expected to become as follows by 1300 UTC 27 June 2019
Winds: from the WSW (250 degrees) at 12 MPH (10 knots; 5.1 m/s)
Visibility: 6 or more miles 10+ km)
Ceiling: unknown
Clouds: missing
Weather: NSW  (no significant weather)

 AIRPORT MAP

 RUNWAY INFORMATION
Runway 07 Runway length 0 ft Runway width 0 ft
Runway elevation 1578 ft Runway displaced threshold 0 ft Runway heading 0
Runway 25 Runway length 0 ft Runway width 0 ft
Runway elevation 1581 ft Runway displaced threshold 0 ft Runway heading 0
Runway 07L Runway length 1820 ft Runway width 98 ft
Runway elevation 1578 ft Runway displaced threshold 0 ft Runway heading 73
Runway 25R Runway length 1820 ft Runway width 98 ft
Runway elevation 1581 ft Runway displaced threshold 328 ft Runway heading 253
Runway 07R Runway length 6562 ft Runway width 131 ft
Runway elevation 1580 ft Runway displaced threshold 164 ft Runway heading 73
Runway 25L Runway length 6562 ft Runway width 131 ft
Runway elevation 1585 ft Runway displaced threshold 164 ft Runway heading 253

 AIRPORT FREQUENCIES
Type A/G Name SWISS MILI Frequency 134.275 MHZ
Type APP Name RADAR Frequency 126.825 MHZ
Type GND Name GND Frequency 121.7 MHZ
Type INFO Name INFO Frequency 122.35 MHZ
Type TWR Name TWR Frequency 118.275 MHZ

 AIRPORT NEAR NAVIGATION AIDS
Type VOR-DME Name Montana Frequency 115850 KHZ
Type VOR-DME Name Sion Frequency 112150 KHZ



Powered by Virtual Airlines Manager [v2.6.2]

Impressum | Datenschutz